createdAt,value
2023-03-12T00:00:55.233Z,52.75
2023-03-12T00:03:23.976Z,53.72
2023-03-12T00:05:51.373Z,53.20
2023-03-12T00:08:18.766Z,53.38
2023-03-12T00:10:46.453Z,52.13
2023-03-12T00:13:13.840Z,51.82
2023-03-12T00:15:41.270Z,52.40
2023-03-12T00:18:08.984Z,51.73
2023-03-12T00:20:36.347Z,50.29
2023-03-12T00:23:03.941Z,49.77
2023-03-12T00:25:31.704Z,49.68
2023-03-12T00:27:59.121Z,48.63
2023-03-12T00:30:28.348Z,48.16
2023-03-12T00:32:56.338Z,48.68
2023-03-12T00:35:23.743Z,48.43
2023-03-12T00:37:51.141Z,49.02
2023-03-12T00:40:18.986Z,48.38
2023-03-12T00:42:46.380Z,48.06
2023-03-12T00:45:13.809Z,48.06
2023-03-12T00:47:41.720Z,47.86
2023-03-12T00:50:09.704Z,48.85
2023-03-12T00:52:37.077Z,48.89
2023-03-12T00:55:05.170Z,49.28
2023-03-12T00:57:32.570Z,49.36
2023-03-12T01:00:00.014Z,49.04
2023-03-12T01:02:27.727Z,49.34
2023-03-12T01:04:55.105Z,49.77
2023-03-12T01:07:22.894Z,48.58
2023-03-12T01:09:50.535Z,49.79
2023-03-12T01:12:18.436Z,50.86
2023-03-12T01:14:45.827Z,49.04
2023-03-12T01:17:13.534Z,49.00
2023-03-12T01:19:40.918Z,49.67
2023-03-12T01:22:08.337Z,49.71
2023-03-12T01:24:36.006Z,50.10
2023-03-12T01:27:03.999Z,48.91
2023-03-12T01:29:31.421Z,50.25
2023-03-12T01:31:59.354Z,50.91
2023-03-12T01:34:26.752Z,50.32
2023-03-12T01:36:55.410Z,52.17
2023-03-12T01:39:23.123Z,51.22
2023-03-12T01:41:50.508Z,51.56
2023-03-12T01:44:17.946Z,51.21
2023-03-12T01:46:48.467Z,50.99
2023-03-12T01:49:18.959Z,51.67
2023-03-12T01:52:03.446Z,51.36
2023-03-12T01:54:36.595Z,52.41
2023-03-12T01:57:06.837Z,51.68
2023-03-12T01:59:39.600Z,51.72
2023-03-12T02:02:08.171Z,51.47
2023-03-12T02:04:37.096Z,50.90
2023-03-12T02:07:13.501Z,50.98
2023-03-12T02:09:44.300Z,52.60
2023-03-12T02:12:12.099Z,51.33
2023-03-12T02:14:39.729Z,50.40
2023-03-12T02:17:07.592Z,50.85
2023-03-12T02:19:52.150Z,51.96
2023-03-12T02:22:21.109Z,51.61
2023-03-12T02:24:53.239Z,51.73
2023-03-12T02:27:21.570Z,52.61
2023-03-12T02:29:49.733Z,52.95
2023-03-12T02:32:23.499Z,53.05
2023-03-12T02:34:51.190Z,53.47
2023-03-12T02:37:19.648Z,53.88
2023-03-12T02:40:06.049Z,53.11
2023-03-12T02:42:34.204Z,54.12
2023-03-12T02:45:02.305Z,54.16
2023-03-12T02:47:29.780Z,53.46
2023-03-12T02:49:57.451Z,53.99
2023-03-12T02:52:24.935Z,52.69
2023-03-12T02:54:52.384Z,52.34
2023-03-12T02:57:20.073Z,54.34
2023-03-12T02:59:47.491Z,55.59
2023-03-12T03:02:15.484Z,54.12
2023-03-12T03:04:43.483Z,54.01
2023-03-12T03:07:10.856Z,54.05
2023-03-12T03:09:38.300Z,52.81
2023-03-12T03:12:06.296Z,54.79
2023-03-12T03:14:34.006Z,54.75
2023-03-12T03:17:01.430Z,54.18
2023-03-12T03:19:29.124Z,54.04
2023-03-12T03:21:56.525Z,54.54
2023-03-12T03:24:23.943Z,53.95
2023-03-12T03:26:51.768Z,54.42
2023-03-12T03:29:19.338Z,54.86
2023-03-12T03:31:46.761Z,56.62
2023-03-12T03:34:14.468Z,54.99
2023-03-12T03:36:41.907Z,54.57
2023-03-12T03:39:09.714Z,56.58
2023-03-12T03:41:37.464Z,55.36
2023-03-12T03:44:05.479Z,57.01
2023-03-12T03:46:38.516Z,55.82
2023-03-12T03:49:06.697Z,53.87
2023-03-12T03:51:34.489Z,55.29
2023-03-12T03:54:02.310Z,54.64
2023-03-12T03:56:30.187Z,54.21
2023-03-12T03:58:58.350Z,53.04
2023-03-12T04:01:26.283Z,52.40
2023-03-12T04:03:55.270Z,53.20
2023-03-12T04:06:23.137Z,52.05
2023-03-12T04:08:50.908Z,53.62
2023-03-12T04:11:20.489Z,52.04
2023-03-12T04:13:48.377Z,53.66
2023-03-12T04:16:16.615Z,55.14
2023-03-12T04:18:45.107Z,52.89
2023-03-12T04:21:13.733Z,54.64
2023-03-12T04:23:41.840Z,53.67
2023-03-12T04:26:09.789Z,52.57
2023-03-12T04:28:37.747Z,53.96
2023-03-12T04:31:07.583Z,54.13
2023-03-12T04:33:37.052Z,56.32
2023-03-12T04:36:05.658Z,57.72
2023-03-12T04:38:33.593Z,58.42
2023-03-12T04:41:02.507Z,58.51
2023-03-12T04:43:30.913Z,57.11
2023-03-12T04:45:58.867Z,58.17
2023-03-12T04:48:27.052Z,56.88
2023-03-12T04:50:55.012Z,57.74
2023-03-12T04:53:23.113Z,58.04
2023-03-12T04:55:52.417Z,57.73
2023-03-12T04:58:20.719Z,56.59
2023-03-12T05:00:49.462Z,56.93
2023-03-12T05:03:18.182Z,56.27
2023-03-12T05:05:45.858Z,55.86
2023-03-12T05:08:13.281Z,55.97
2023-03-12T05:10:41.083Z,54.87
2023-03-12T05:13:19.678Z,56.73
2023-03-12T05:15:50.681Z,57.22
2023-03-12T05:18:20.574Z,55.90
2023-03-12T05:20:58.530Z,56.16
2023-03-12T05:23:26.037Z,58.05
2023-03-12T05:25:53.857Z,56.44
2023-03-12T05:28:21.910Z,55.50
2023-03-12T05:30:49.511Z,56.54
2023-03-12T05:33:17.222Z,55.99
2023-03-12T05:35:44.722Z,55.69
2023-03-12T05:38:12.141Z,58.08
2023-03-12T05:40:39.806Z,56.79
2023-03-12T05:43:07.229Z,57.46
2023-03-12T05:45:34.749Z,56.51
2023-03-12T05:48:03.078Z,56.36
2023-03-12T05:50:30.712Z,56.08
2023-03-12T05:52:58.156Z,56.79
2023-03-12T05:55:25.894Z,54.83
2023-03-12T05:57:54.220Z,56.74
2023-03-12T06:00:22.010Z,55.42
2023-03-12T06:02:51.217Z,56.78
2023-03-12T06:05:19.628Z,56.91
2023-03-12T06:07:47.083Z,56.45
2023-03-12T06:10:14.923Z,55.46
2023-03-12T06:12:42.442Z,55.62
2023-03-12T06:15:10.574Z,56.80
2023-03-12T06:17:38.484Z,55.96
2023-03-12T06:20:06.886Z,56.16
2023-03-12T06:22:34.652Z,56.08
2023-03-12T06:25:02.655Z,55.24
2023-03-12T06:27:30.101Z,56.22
2023-03-12T06:29:57.590Z,55.68
2023-03-12T06:32:26.110Z,55.60
2023-03-12T06:34:53.647Z,55.34
2023-03-12T06:37:21.089Z,56.43
2023-03-12T06:39:49.051Z,55.15
2023-03-12T06:42:19.653Z,55.96
2023-03-12T06:44:47.046Z,55.20
2023-03-12T06:47:17.432Z,55.43
2023-03-12T06:49:45.084Z,56.21
2023-03-12T06:52:12.520Z,56.45
2023-03-12T06:54:40.202Z,54.29
2023-03-12T06:57:07.623Z,54.26
2023-03-12T06:59:35.029Z,53.96
2023-03-12T07:02:02.856Z,54.71
2023-03-12T07:04:30.288Z,53.49
2023-03-12T07:06:57.690Z,52.39
2023-03-12T07:09:25.352Z,53.56
2023-03-12T07:11:52.712Z,52.88
2023-03-12T07:14:21.342Z,52.99
2023-03-12T07:16:49.043Z,52.35
2023-03-12T07:19:16.638Z,53.03
2023-03-12T07:21:44.028Z,53.81
2023-03-12T07:24:11.720Z,52.75
2023-03-12T07:26:40.033Z,53.29
2023-03-12T07:29:07.434Z,53.61
2023-03-12T07:31:35.218Z,53.10
2023-03-12T07:34:03.313Z,53.03
2023-03-12T07:36:31.030Z,52.63
2023-03-12T07:38:58.824Z,51.88
2023-03-12T07:41:26.220Z,52.64
2023-03-12T07:43:53.645Z,52.05
2023-03-12T07:46:21.674Z,52.14
2023-03-12T07:48:49.105Z,51.29
2023-03-12T07:51:16.558Z,51.88
2023-03-12T07:53:44.379Z,51.04
2023-03-12T07:56:11.934Z,52.23
2023-03-12T07:58:39.563Z,51.83
2023-03-12T08:01:07.593Z,50.48
2023-03-12T08:03:35.845Z,50.58
2023-03-12T08:06:04.554Z,49.79
2023-03-12T08:08:32.507Z,50.43
2023-03-12T08:11:00.634Z,50.76
2023-03-12T08:13:28.204Z,48.65
2023-03-12T08:15:55.865Z,49.42
2023-03-12T08:18:24.720Z,49.63
2023-03-12T08:20:54.134Z,47.97
2023-03-12T08:23:22.294Z,48.60
2023-03-12T08:25:50.877Z,47.79
2023-03-12T08:28:19.153Z,47.07
2023-03-12T08:30:51.915Z,46.78
2023-03-12T08:33:19.904Z,45.37
2023-03-12T08:35:47.586Z,45.81
2023-03-12T08:38:15.222Z,44.76
2023-03-12T08:40:42.954Z,44.14
2023-03-12T08:43:10.653Z,45.13
2023-03-12T08:45:38.093Z,44.28
2023-03-12T08:48:06.711Z,43.41
2023-03-12T08:50:34.071Z,42.21
2023-03-12T08:53:01.445Z,41.54
2023-03-12T08:55:29.140Z,40.07
2023-03-12T08:57:56.933Z,39.63
2023-03-12T09:00:25.145Z,39.93
2023-03-12T09:02:54.209Z,39.73
2023-03-12T09:05:21.740Z,40.54
2023-03-12T09:07:50.125Z,40.83
2023-03-12T09:10:18.291Z,40.45
2023-03-12T09:12:45.698Z,41.44
2023-03-12T09:15:13.186Z,40.73
2023-03-12T09:17:41.411Z,40.25
2023-03-12T09:20:13.984Z,40.53
2023-03-12T09:22:42.983Z,40.93
2023-03-12T09:25:11.273Z,40.07
2023-03-12T09:27:43.388Z,40.48
2023-03-12T09:30:16.862Z,39.97
2023-03-12T09:32:47.503Z,39.59
2023-03-12T09:35:16.043Z,39.40
2023-03-12T09:37:43.853Z,38.43
2023-03-12T09:40:17.094Z,39.24
2023-03-12T09:42:56.241Z,39.52
2023-03-12T09:45:30.757Z,38.58
2023-03-12T09:48:04.604Z,38.46
2023-03-12T09:50:40.712Z,38.19
2023-03-12T09:53:30.255Z,38.73
2023-03-12T09:55:58.918Z,37.79
2023-03-12T09:58:32.569Z,37.11
2023-03-12T10:01:25.744Z,36.30
2023-03-12T10:03:53.348Z,35.65
2023-03-12T10:06:23.425Z,35.07
2023-03-12T10:09:03.418Z,35.73
2023-03-12T10:11:52.524Z,35.43
2023-03-12T10:14:30.002Z,35.26
2023-03-12T10:17:39.969Z,36.05
2023-03-12T10:20:50.499Z,35.74
2023-03-12T10:23:57.315Z,34.19
2023-03-12T10:26:27.123Z,34.24
2023-03-12T10:29:01.084Z,33.29
2023-03-12T10:31:43.222Z,32.63
2023-03-12T10:34:49.502Z,31.99
2023-03-12T10:37:25.964Z,32.69
2023-03-12T10:39:55.671Z,31.81
2023-03-12T10:42:28.340Z,31.49
2023-03-12T10:45:01.519Z,34.16
2023-03-12T10:47:34.732Z,33.80
2023-03-12T10:50:15.065Z,33.40
2023-03-12T10:52:43.510Z,32.41
2023-03-12T10:55:21.143Z,31.80
2023-03-12T10:57:49.122Z,31.65
2023-03-12T11:00:24.852Z,33.03
2023-03-12T11:03:01.100Z,32.91
2023-03-12T11:05:49.038Z,29.73
2023-03-12T11:08:27.245Z,29.74
2023-03-12T11:10:57.192Z,29.98
2023-03-12T11:13:41.752Z,28.69
2023-03-12T11:16:18.924Z,27.43
2023-03-12T11:19:01.577Z,27.18
2023-03-12T11:21:38.331Z,26.20
2023-03-12T11:24:13.680Z,26.00
2023-03-12T11:26:56.857Z,25.77
2023-03-12T11:29:27.523Z,25.88
2023-03-12T11:32:18.625Z,26.54
2023-03-12T11:34:49.456Z,24.42
2023-03-12T11:37:49.304Z,26.02
2023-03-12T11:40:52.087Z,26.43
2023-03-12T11:43:40.230Z,27.08
2023-03-12T11:46:27.694Z,28.77
2023-03-12T11:48:58.526Z,25.05
2023-03-12T11:51:38.638Z,24.78
2023-03-12T11:54:09.080Z,21.73
2023-03-12T11:56:45.591Z,20.31
2023-03-12T11:59:41.666Z,21.39
2023-03-12T12:02:36.402Z,20.95
2023-03-12T12:05:23.445Z,20.84
2023-03-12T12:08:10.024Z,21.47
2023-03-12T12:10:58.956Z,21.62
2023-03-12T12:13:50.956Z,21.13
2023-03-12T12:16:22.338Z,22.50
2023-03-12T12:19:11.726Z,21.16
2023-03-12T12:21:58.140Z,22.21
2023-03-12T12:24:34.287Z,22.35
2023-03-12T12:27:23.857Z,22.94
2023-03-12T12:30:15.284Z,21.64
2023-03-12T12:33:04.040Z,21.37
2023-03-12T12:39:08.604Z,24.42
2023-03-12T12:41:40.368Z,23.60
2023-03-12T12:44:10.834Z,25.35
2023-03-12T12:46:52.714Z,25.07
2023-03-12T12:49:24.797Z,24.53
2023-03-12T12:52:00.294Z,24.28
2023-03-12T12:55:00.895Z,24.07
2023-03-12T12:57:38.641Z,22.98
2023-03-12T13:00:23.452Z,22.09
2023-03-12T13:02:51.972Z,22.95
2023-03-12T13:05:26.279Z,24.08
2023-03-12T13:07:54.489Z,23.56
2023-03-12T13:10:34.726Z,24.28
2023-03-12T13:13:13.597Z,23.32
2023-03-12T13:15:43.916Z,23.22
2023-03-12T13:18:22.984Z,24.42
2023-03-12T13:20:53.492Z,23.65
2023-03-12T13:23:58.860Z,22.33
2023-03-12T13:26:46.693Z,23.16
2023-03-12T13:29:24.137Z,22.88
2023-03-12T13:31:51.949Z,22.78
2023-03-12T13:34:19.777Z,22.85
2023-03-12T13:36:53.926Z,23.62
2023-03-12T13:39:35.986Z,23.88
2023-03-12T13:42:28.239Z,23.52
2023-03-12T13:44:56.557Z,23.79
2023-03-12T13:47:32.300Z,23.52
2023-03-12T13:50:03.842Z,22.43
2023-03-12T13:52:33.060Z,23.07
2023-03-12T13:55:11.995Z,22.89
2023-03-12T13:57:44.301Z,22.47
2023-03-12T14:00:20.918Z,22.33
2023-03-12T14:02:58.719Z,21.47
2023-03-12T14:05:27.590Z,21.65
2023-03-12T14:08:33.228Z,22.88
2023-03-12T14:11:18.617Z,20.99
2023-03-12T14:13:52.093Z,21.66
2023-03-12T14:16:49.631Z,21.58
2023-03-12T14:19:21.539Z,20.84
2023-03-12T14:21:50.784Z,22.09
2023-03-12T14:24:29.954Z,21.09
2023-03-12T14:27:05.547Z,19.58
2023-03-12T14:29:52.761Z,21.25
2023-03-12T14:32:28.494Z,21.87
2023-03-12T14:35:16.990Z,20.99
2023-03-12T14:38:33.845Z,21.86
2023-03-12T14:41:26.306Z,22.47
2023-03-12T14:44:04.484Z,21.96
2023-03-12T14:46:32.834Z,22.00
2023-03-12T14:49:00.766Z,22.25
2023-03-12T14:51:30.777Z,22.20
2023-03-12T14:54:03.481Z,22.94
2023-03-12T14:56:35.161Z,21.51
2023-03-12T14:59:23.370Z,20.73
2023-03-12T15:01:51.735Z,20.87
2023-03-12T15:04:22.332Z,20.73
2023-03-12T15:06:52.850Z,20.34
2023-03-12T15:09:26.977Z,19.87
2023-03-12T15:11:58.623Z,20.43
2023-03-12T15:14:29.536Z,19.95
2023-03-12T15:17:00.355Z,21.09
2023-03-12T15:19:34.364Z,20.91
2023-03-12T15:22:04.173Z,20.93
2023-03-12T15:24:38.608Z,21.69
2023-03-12T15:27:32.369Z,23.74
2023-03-12T15:30:01.568Z,22.12
2023-03-12T15:32:31.982Z,23.33
2023-03-12T15:35:12.710Z,22.87
2023-03-12T15:37:41.496Z,21.58
2023-03-12T15:40:27.801Z,22.35
2023-03-12T15:42:59.094Z,25.02
2023-03-12T15:45:46.202Z,22.96
2023-03-12T15:48:46.070Z,22.84
2023-03-12T15:51:27.095Z,23.31
2023-03-12T15:54:22.100Z,25.16
2023-03-12T15:56:50.244Z,21.74
2023-03-12T15:59:26.511Z,23.30
2023-03-12T16:01:57.228Z,26.04
2023-03-12T16:04:26.549Z,27.62
2023-03-12T16:06:54.777Z,27.13
2023-03-12T16:09:27.536Z,28.23
2023-03-12T16:11:58.361Z,28.71
2023-03-12T16:14:33.226Z,28.85
2023-03-12T16:17:01.633Z,29.11
2023-03-12T16:19:30.820Z,28.89
2023-03-12T16:21:58.876Z,29.34
2023-03-12T16:24:27.673Z,28.96
2023-03-12T16:26:57.765Z,29.66
2023-03-12T16:29:38.507Z,29.42
2023-03-12T16:32:16.553Z,29.01
2023-03-12T16:34:46.071Z,29.40
2023-03-12T16:37:15.542Z,29.59
2023-03-12T16:39:46.785Z,29.14
2023-03-12T16:42:18.017Z,30.03
2023-03-12T16:44:47.371Z,29.79
2023-03-12T16:47:16.416Z,29.86
2023-03-12T16:49:45.935Z,29.28
2023-03-12T16:52:24.860Z,29.08
2023-03-12T16:54:54.647Z,29.22
2023-03-12T16:57:38.421Z,29.94
2023-03-12T17:00:20.307Z,30.49
2023-03-12T17:02:49.694Z,30.79
2023-03-12T17:05:20.252Z,30.53
2023-03-12T17:07:48.216Z,30.60
2023-03-12T17:10:16.965Z,30.29
2023-03-12T17:12:48.195Z,30.68
2023-03-12T17:15:28.614Z,31.07
2023-03-12T17:17:59.592Z,31.02
2023-03-12T17:20:28.305Z,31.02
2023-03-12T17:22:57.360Z,31.14
2023-03-12T17:25:29.098Z,30.72
2023-03-12T17:27:58.294Z,30.78
2023-03-12T17:30:28.639Z,31.51
2023-03-12T17:33:09.901Z,31.31
2023-03-12T17:35:42.478Z,31.49
2023-03-12T17:38:12.279Z,31.49
2023-03-12T17:40:45.903Z,31.40
2023-03-12T17:43:15.780Z,31.51
2023-03-12T17:45:46.266Z,31.59
2023-03-12T17:48:16.464Z,32.18
2023-03-12T17:50:48.339Z,32.55
2023-03-12T17:53:17.076Z,32.46
2023-03-12T17:55:47.958Z,32.69
2023-03-12T17:58:20.854Z,32.89
2023-03-12T18:00:49.680Z,32.48
2023-03-12T18:03:18.850Z,33.10
2023-03-12T18:05:53.052Z,32.66
2023-03-12T18:08:22.443Z,32.89
2023-03-12T18:10:51.493Z,33.03
2023-03-12T18:13:20.407Z,33.43
2023-03-12T18:15:58.523Z,32.98
2023-03-12T18:18:28.688Z,32.75
2023-03-12T18:20:57.729Z,32.59
2023-03-12T18:23:25.980Z,33.14
2023-03-12T18:25:57.310Z,33.14
2023-03-12T18:28:26.509Z,33.42
2023-03-12T18:30:55.160Z,33.51
2023-03-12T18:33:28.098Z,33.81
2023-03-12T18:35:57.778Z,32.98
2023-03-12T18:38:26.803Z,33.58
2023-03-12T18:41:11.190Z,33.36
2023-03-12T18:43:40.935Z,33.06
2023-03-12T18:46:28.741Z,33.46
2023-03-12T18:48:58.342Z,34.15
2023-03-12T18:51:28.117Z,33.55
2023-03-12T18:53:57.095Z,34.10
2023-03-12T18:56:26.678Z,34.25
2023-03-12T18:58:59.555Z,33.87
2023-03-12T19:01:30.778Z,33.82
2023-03-12T19:03:59.032Z,33.82
2023-03-12T19:06:29.667Z,34.12
2023-03-12T19:09:01.890Z,33.99
2023-03-12T19:11:30.666Z,34.04
2023-03-12T19:14:03.864Z,34.81
2023-03-12T19:16:33.034Z,35.02
2023-03-12T19:19:02.220Z,35.25
2023-03-12T19:21:32.185Z,35.46
2023-03-12T19:24:01.502Z,35.52
2023-03-12T19:26:35.581Z,35.50
2023-03-12T19:29:09.829Z,36.22
2023-03-12T19:31:39.189Z,36.63
2023-03-12T19:34:10.226Z,37.06
2023-03-12T19:36:39.494Z,36.22
2023-03-12T19:39:15.249Z,36.75
2023-03-12T19:41:50.011Z,36.98
2023-03-12T19:44:19.730Z,37.20
2023-03-12T19:46:48.855Z,37.42
2023-03-12T19:49:17.536Z,37.29
2023-03-12T19:51:46.726Z,37.36
2023-03-12T19:54:16.047Z,37.88
2023-03-12T19:56:44.804Z,37.52
2023-03-12T19:59:32.064Z,37.57
2023-03-12T20:02:02.224Z,37.52
2023-03-12T20:04:31.856Z,37.37
2023-03-12T20:07:00.684Z,37.83
2023-03-12T20:09:29.608Z,38.12
2023-03-12T20:11:58.870Z,38.37
2023-03-12T20:14:29.007Z,38.29
2023-03-12T20:16:58.135Z,38.49
2023-03-12T20:19:27.116Z,38.36
2023-03-12T20:21:58.115Z,38.58
2023-03-12T20:24:29.692Z,38.41
2023-03-12T20:26:58.842Z,38.25
2023-03-12T20:29:28.326Z,38.59
2023-03-12T20:31:58.439Z,38.92
2023-03-12T20:34:29.531Z,38.88
2023-03-12T20:36:59.007Z,38.94
2023-03-12T20:39:28.421Z,39.34
2023-03-12T20:41:56.847Z,39.21
2023-03-12T20:44:27.680Z,38.71
2023-03-12T20:46:57.277Z,39.03
2023-03-12T20:49:28.851Z,39.92
2023-03-12T20:51:57.099Z,40.04
2023-03-12T20:54:28.081Z,39.62
2023-03-12T20:56:55.867Z,39.86
2023-03-12T20:59:24.461Z,39.90
2023-03-12T21:01:53.236Z,40.18
2023-03-12T21:04:22.130Z,40.38
2023-03-12T21:06:52.107Z,40.22
2023-03-12T21:09:22.656Z,40.10
2023-03-12T21:11:51.405Z,40.26
2023-03-12T21:14:19.763Z,40.48
2023-03-12T21:16:51.079Z,40.26
2023-03-12T21:19:19.456Z,40.08
2023-03-12T21:21:47.908Z,40.76
2023-03-12T21:24:15.546Z,40.64
2023-03-12T21:26:43.061Z,40.89
2023-03-12T21:29:11.928Z,41.57
2023-03-12T21:31:39.603Z,41.29
2023-03-12T21:34:09.379Z,41.61
2023-03-12T21:36:37.864Z,41.26
2023-03-12T21:39:06.041Z,41.27
2023-03-12T21:41:33.530Z,41.71
2023-03-12T21:44:02.360Z,41.59
2023-03-12T21:46:30.850Z,41.74
2023-03-12T21:48:59.094Z,41.57
2023-03-12T21:51:26.955Z,42.44
2023-03-12T21:53:58.229Z,42.13
2023-03-12T21:56:30.281Z,41.69
2023-03-12T21:58:58.257Z,41.71
2023-03-12T22:01:26.096Z,41.26
2023-03-12T22:03:53.982Z,41.06
2023-03-12T22:06:21.498Z,38.92
2023-03-12T22:08:49.352Z,38.34
2023-03-12T22:11:17.093Z,38.99
2023-03-12T22:13:44.708Z,39.50
2023-03-12T22:16:13.708Z,39.83
2023-03-12T22:18:47.818Z,39.39
2023-03-12T22:21:18.901Z,39.44
2023-03-12T22:23:53.727Z,40.32
2023-03-12T22:26:22.507Z,39.01
2023-03-12T22:28:52.043Z,40.76
2023-03-12T22:31:24.349Z,40.06
2023-03-12T22:33:52.174Z,39.45
2023-03-12T22:36:20.452Z,39.38
2023-03-12T22:38:47.907Z,39.81
2023-03-12T22:41:15.592Z,40.30
2023-03-12T22:43:43.440Z,39.85
2023-03-12T22:46:11.263Z,39.80
2023-03-12T22:48:38.981Z,39.62
2023-03-12T22:51:06.587Z,39.93
2023-03-12T22:53:34.208Z,40.11
2023-03-12T22:56:07.244Z,40.91
2023-03-12T22:58:34.636Z,40.74
2023-03-12T23:01:11.084Z,40.20
2023-03-12T23:03:39.929Z,39.84
2023-03-12T23:06:16.315Z,40.62
2023-03-12T23:08:46.141Z,40.17
2023-03-12T23:11:15.918Z,40.18
2023-03-12T23:13:44.901Z,39.78
2023-03-12T23:16:15.134Z,39.67
2023-03-12T23:18:43.448Z,40.91
2023-03-12T23:21:13.437Z,43.01
2023-03-12T23:23:43.555Z,41.45
2023-03-12T23:26:19.908Z,42.03
2023-03-12T23:28:47.566Z,41.13
2023-03-12T23:31:16.106Z,40.21
2023-03-12T23:33:44.075Z,41.62
2023-03-12T23:36:14.568Z,40.91
2023-03-12T23:38:42.780Z,40.37
2023-03-12T23:41:14.706Z,41.95
2023-03-12T23:43:42.840Z,41.87
2023-03-12T23:46:11.235Z,41.56
2023-03-12T23:48:39.151Z,41.16
2023-03-12T23:51:14.992Z,42.07
2023-03-12T23:53:43.770Z,41.09
2023-03-12T23:56:16.615Z,42.15
2023-03-12T23:58:44.805Z,41.21
